Aérodrome :
LOGIN :

S'inscrire | Disclaimer

   EN    FR    IT 

 










Légende :    VFR   VFR Marginal   IFR   IFR Intensif   IFR Très Intensif
Visi : 
Plafond : 
>= 8 km
>= 3000ft
5 à 8 km
1000 à 3000 ft
1500m à 5 km
500 à 1000 ft
800 à 1500m
200 à 500 ft
< 800m
< 200 ft
Symboles :   Orages  Brouillard  Fortes neiges  Fortes précipitations  Vent > 20 kt
SIGMETs :   Divers  Orages  Givrage  Turbulence  Onde Orograph.  Cendres Volcan.






- Altitude de l'aérodrome : 353 ft
- Code IATA : LIN


LIML - Milano Linate

DERNIER METAR :
  • 190020Z AUTO VRB02KT 9999 SCT060/// 20/18 Q1012

METARs EXPIRÉS :
  • 182350Z AUTO 06003KT 040V100 9999 NCD 20/18 Q1012
  • 182320Z AUTO 03005KT 9999 FEW110/// 20/19 Q1012 RETS
  • 182250Z AUTO VRB02KT 9999 FEW140/// 20/19 Q1012
  • 182220Z AUTO 35003KT 9999 FEW052/// BKN170/// 20/18 Q1012
  • 182150Z AUTO 28004KT 260V320 9999 -RA BKN052/// BKN110/// 19/18 Q1012

TAF TAF LIML
Valide du 19 à 00h jusqu'au 20 à 00h UTC


182300Z 1900/1924 17005KT 9999 SCT050
TEMPO 1903/1916 TSRA



MET'MAP, la Météo Aéronautique d'un coup d'oeil ! - Copyright ORBIFLY Décembre 2007 - Disclaimer

ORBIFLY MET'MAP TEAM :

Programmation & Développement : Alexandra Zaïnal
Sur une idée originale de : Baudouin d'Aumeries
Assistance à la programmation : Marc-Olivier Méhu
Soutien technique & logistique : Manuel Goepfert

Contact : metmap@orbifly.com




SOURCES & CREDITS :

   NOAA